createdAt,value
2022-09-23T00:00:58.050Z,37.5160
2022-09-23T00:02:00.459Z,37.4930
2022-09-23T00:03:02.593Z,37.5050
2022-09-23T00:04:04.727Z,37.4820
2022-09-23T00:05:06.956Z,37.4720
2022-09-23T00:06:09.142Z,37.4660
2022-09-23T00:07:11.305Z,37.4820
2022-09-23T00:08:11.405Z,37.4510
2022-09-23T00:09:13.568Z,37.4600
2022-09-23T00:10:15.774Z,37.4610
2022-09-23T00:11:17.938Z,37.5150
2022-09-23T00:12:20.151Z,37.5210
2022-09-23T00:13:22.386Z,37.4920
2022-09-23T00:14:24.572Z,37.5200
2022-09-23T00:15:26.793Z,37.4900
2022-09-23T00:16:29.127Z,37.4550
2022-09-23T00:17:31.238Z,37.4500
2022-09-23T00:18:33.481Z,37.4780
2022-09-23T00:19:35.681Z,37.5000
2022-09-23T00:20:37.928Z,37.4890
2022-09-23T00:21:40.171Z,37.4720
2022-09-23T00:22:42.416Z,37.4600
2022-09-23T00:23:44.733Z,37.4720
2022-09-23T00:24:46.973Z,37.4780
2022-09-23T00:25:49.192Z,37.4720
2022-09-23T00:26:51.463Z,37.4620
2022-09-23T00:27:53.693Z,37.4130
2022-09-23T00:28:55.895Z,37.4300
2022-09-23T00:29:57.999Z,37.4300
2022-09-23T00:30:58.083Z,37.4380
2022-09-23T00:32:00.236Z,37.4540
2022-09-23T00:33:02.442Z,37.4130
2022-09-23T00:34:04.666Z,37.5130
2022-09-23T00:35:06.866Z,37.4900
2022-09-23T00:36:06.979Z,37.4780
2022-09-23T00:37:09.172Z,37.4580
2022-09-23T00:38:11.405Z,37.4300
2022-09-23T00:39:13.642Z,37.4020
2022-09-23T00:40:15.965Z,37.4400
2022-09-23T00:41:16.058Z,37.4360
2022-09-23T00:42:18.338Z,37.4460
2022-09-23T00:43:20.632Z,37.4210
2022-09-23T00:44:22.938Z,37.4460
2022-09-23T00:45:25.191Z,37.4460
2022-09-23T00:46:27.606Z,37.4210
2022-09-23T00:47:29.817Z,37.4520
2022-09-23T00:48:32.123Z,37.4350
2022-09-23T00:49:34.481Z,37.4410
2022-09-23T00:50:36.748Z,37.4570
2022-09-23T00:51:36.905Z,37.4850
2022-09-23T00:52:39.166Z,37.4580
2022-09-23T00:53:41.455Z,37.4700
2022-09-23T00:54:43.811Z,37.4530
2022-09-23T00:55:46.034Z,37.4470
2022-09-23T00:56:48.328Z,37.4090
2022-09-23T00:57:50.611Z,37.3920
2022-09-23T00:58:50.751Z,37.4320
2022-09-23T00:59:53.084Z,37.4570
2022-09-23T01:00:55.375Z,37.4260
2022-09-23T01:01:57.736Z,37.4260
2022-09-23T01:02:59.938Z,37.3790
2022-09-23T01:04:02.261Z,37.4090
2022-09-23T01:05:04.533Z,37.4260
2022-09-23T01:06:04.621Z,37.4150
2022-09-23T01:07:06.917Z,37.3860
2022-09-23T01:08:09.184Z,37.3860
2022-09-23T01:09:11.438Z,37.3870
2022-09-23T01:10:13.686Z,37.4270
2022-09-23T01:11:15.897Z,37.4740
2022-09-23T01:12:18.171Z,37.4750
2022-09-23T01:13:20.442Z,37.4160
2022-09-23T01:14:20.495Z,37.4240
2022-09-23T01:15:22.806Z,37.4210
2022-09-23T01:16:25.092Z,37.4470
2022-09-23T01:17:27.292Z,37.4350
2022-09-23T01:18:29.557Z,37.4430
2022-09-23T01:19:31.824Z,37.4850
2022-09-23T01:20:34.134Z,37.4740
2022-09-23T01:21:36.352Z,37.4750
2022-09-23T01:22:36.444Z,37.5120
2022-09-23T01:23:38.657Z,37.4880
2022-09-23T01:24:40.893Z,37.5260
2022-09-23T01:25:43.109Z,37.5240
2022-09-23T01:26:45.249Z,37.5370
2022-09-23T01:27:45.352Z,37.5340
2022-09-23T01:28:47.646Z,37.5730
2022-09-23T01:29:49.931Z,37.5670
2022-09-23T01:30:52.230Z,37.5480
2022-09-23T01:31:54.398Z,37.5310
2022-09-23T01:32:56.628Z,37.6060
2022-09-23T01:33:58.821Z,37.5620
2022-09-23T01:35:01.065Z,37.6120
2022-09-23T01:36:03.343Z,37.5910
2022-09-23T01:37:05.543Z,37.5790
2022-09-23T01:38:07.808Z,37.5940
2022-09-23T01:39:10.088Z,37.5410
2022-09-23T01:40:12.359Z,37.5290
2022-09-23T01:41:14.498Z,37.5310
2022-09-23T01:42:16.689Z,37.5520
2022-09-23T01:43:18.901Z,37.5020
2022-09-23T01:44:21.039Z,37.4990
2022-09-23T01:45:23.197Z,37.4990
2022-09-23T01:46:25.387Z,37.5140
2022-09-23T01:47:27.519Z,37.5990
2022-09-23T01:48:29.778Z,37.5450
2022-09-23T01:49:31.920Z,37.5320
2022-09-23T01:50:32.047Z,37.5580
2022-09-23T01:51:34.356Z,37.5140
2022-09-23T01:52:36.549Z,37.5260
2022-09-23T01:53:38.979Z,37.4910
2022-09-23T01:54:41.011Z,37.5510
2022-09-23T01:55:43.292Z,37.5510
2022-09-23T01:56:45.616Z,37.5140
2022-09-23T01:57:47.886Z,37.5560
2022-09-23T01:58:48.049Z,37.5690
2022-09-23T01:59:50.348Z,37.5370
2022-09-23T02:00:52.743Z,37.5560
2022-09-23T02:01:54.971Z,37.5560
2022-09-23T02:02:57.159Z,37.4860
2022-09-23T02:03:59.378Z,37.5040
2022-09-23T02:05:01.559Z,37.5150
2022-09-23T02:06:03.815Z,37.4980
2022-09-23T02:07:03.925Z,37.5490
2022-09-23T02:08:06.141Z,37.5600
2022-09-23T02:09:08.509Z,37.5960
2022-09-23T02:10:10.626Z,37.5600
2022-09-23T02:11:12.839Z,37.5380
2022-09-23T02:12:15.092Z,37.5320
2022-09-23T02:13:17.305Z,37.4960
2022-09-23T02:14:19.552Z,37.5100
2022-09-23T02:15:21.812Z,37.4620
2022-09-23T02:16:24.080Z,37.4730
2022-09-23T02:17:26.343Z,37.5060
2022-09-23T02:18:28.546Z,37.5130
2022-09-23T02:19:30.764Z,37.5070
2022-09-23T02:20:33.014Z,37.4950
2022-09-23T02:21:35.328Z,37.5130
2022-09-23T02:22:37.666Z,37.5000
2022-09-23T02:23:39.864Z,37.5440
2022-09-23T02:24:42.197Z,37.5610
2022-09-23T02:25:44.494Z,37.5590
2022-09-23T02:26:44.649Z,37.5470
2022-09-23T02:27:46.942Z,37.5280
2022-09-23T02:28:49.179Z,37.5750
2022-09-23T02:29:51.462Z,37.5820
2022-09-23T02:30:51.602Z,37.5590
2022-09-23T02:31:53.936Z,37.5170
2022-09-23T02:32:56.222Z,37.5090
2022-09-23T02:33:58.445Z,37.5500
2022-09-23T02:34:58.561Z,37.4940
2022-09-23T02:36:00.813Z,37.4630
2022-09-23T02:37:03.055Z,37.5090
2022-09-23T02:38:05.367Z,37.5000
2022-09-23T02:39:05.484Z,37.5250
2022-09-23T02:40:07.825Z,37.5770
2022-09-23T02:41:10.095Z,37.5900
2022-09-23T02:42:12.400Z,37.5440
2022-09-23T02:43:14.759Z,37.5270
2022-09-23T02:44:17.064Z,37.5180
2022-09-23T02:45:19.398Z,37.5370
2022-09-23T02:46:21.799Z,37.4950
2022-09-23T02:47:24.057Z,37.4830
2022-09-23T02:48:26.382Z,37.5180
2022-09-23T02:49:28.656Z,37.5660
2022-09-23T02:50:31.018Z,37.5830
2022-09-23T02:51:33.264Z,37.5410
2022-09-23T02:52:35.580Z,37.5570
2022-09-23T02:53:37.896Z,37.5620
2022-09-23T02:54:40.145Z,37.5400
2022-09-23T02:55:40.323Z,37.5900
2022-09-23T02:56:42.573Z,37.5770
2022-09-23T02:57:44.881Z,37.5680
2022-09-23T02:58:47.263Z,37.5430
2022-09-23T02:59:49.571Z,37.5220
2022-09-23T03:00:51.907Z,37.5690
2022-09-23T03:01:54.254Z,37.6150
2022-09-23T03:02:56.509Z,37.6210
2022-09-23T03:03:58.856Z,37.6500
2022-09-23T03:05:01.068Z,37.6150
2022-09-23T03:06:01.190Z,37.6380
2022-09-23T03:07:03.466Z,37.5900
2022-09-23T03:08:05.790Z,37.6150
2022-09-23T03:09:08.151Z,37.5760
2022-09-23T03:10:10.431Z,37.5400
2022-09-23T03:11:12.765Z,37.5110
2022-09-23T03:12:15.062Z,37.5380
2022-09-23T03:13:17.383Z,37.5670
2022-09-23T03:14:19.727Z,37.5730
2022-09-23T03:15:22.028Z,37.5380
2022-09-23T03:16:24.467Z,37.5500
2022-09-23T03:17:26.615Z,37.5790
2022-09-23T03:18:28.858Z,37.6040
2022-09-23T03:19:28.985Z,37.5740
2022-09-23T03:20:31.228Z,37.6040
2022-09-23T03:21:33.535Z,37.5730
2022-09-23T03:22:35.836Z,37.5190
2022-09-23T03:23:35.982Z,37.5010
2022-09-23T03:24:38.321Z,37.3730
2022-09-23T03:25:40.596Z,37.3850
2022-09-23T03:26:42.913Z,37.5000
2022-09-23T03:27:45.151Z,37.5580
2022-09-23T03:28:47.445Z,37.5690
2022-09-23T03:29:49.780Z,37.5140
2022-09-23T03:30:49.903Z,37.5870
2022-09-23T03:31:52.274Z,37.5750
2022-09-23T03:32:54.519Z,37.5220
2022-09-23T03:33:56.752Z,37.4930
2022-09-23T03:34:59.075Z,37.4370
2022-09-23T03:36:01.346Z,37.4370
2022-09-23T03:37:03.627Z,37.4490
2022-09-23T03:38:03.757Z,37.3760
2022-09-23T03:39:06.168Z,37.4620
2022-09-23T03:40:08.408Z,37.4670
2022-09-23T03:41:10.506Z,37.3700
2022-09-23T03:42:12.767Z,37.4140
2022-09-23T03:43:15.016Z,37.4400
2022-09-23T03:44:17.306Z,37.3690
2022-09-23T03:45:19.601Z,37.3640
2022-09-23T03:46:19.663Z,37.3520
2022-09-23T03:47:21.960Z,37.3640
2022-09-23T03:48:24.308Z,37.4620
2022-09-23T03:49:26.638Z,37.3780
2022-09-23T03:50:28.997Z,37.3840
2022-09-23T03:51:31.288Z,37.3000
2022-09-23T03:52:33.631Z,37.2860
2022-09-23T03:53:35.984Z,37.3260
2022-09-23T03:54:38.318Z,37.3030
2022-09-23T03:55:38.532Z,37.3200
2022-09-23T03:56:40.816Z,37.2910
2022-09-23T03:57:43.201Z,37.3750
2022-09-23T03:58:45.392Z,37.3700
2022-09-23T03:59:45.531Z,37.3400
2022-09-23T04:00:47.887Z,37.3360
2022-09-23T04:01:50.166Z,37.3360
2022-09-23T04:02:52.369Z,37.3510
2022-09-23T04:03:54.673Z,37.3810
2022-09-23T04:04:56.969Z,37.3800
2022-09-23T04:05:59.329Z,37.3420
2022-09-23T04:06:59.492Z,37.3690
2022-09-23T04:08:01.836Z,37.3800
2022-09-23T04:09:04.179Z,37.4460
2022-09-23T04:10:04.334Z,37.3800
2022-09-23T04:11:06.578Z,37.4400
2022-09-23T04:12:08.763Z,37.4930
2022-09-23T04:13:11.067Z,37.4810
2022-09-23T04:14:13.353Z,37.5110
2022-09-23T04:15:15.691Z,37.4930
2022-09-23T04:16:18.097Z,37.5820
2022-09-23T04:17:20.301Z,37.6140
2022-09-23T04:18:22.623Z,37.6280
2022-09-23T04:19:24.962Z,37.6520
2022-09-23T04:20:27.204Z,37.6120
2022-09-23T04:21:29.547Z,37.6680
2022-09-23T04:22:31.804Z,37.7270
2022-09-23T04:23:34.101Z,37.7760
2022-09-23T04:24:36.357Z,37.7920
2022-09-23T04:25:38.621Z,37.8210
2022-09-23T04:26:40.946Z,37.9430
2022-09-23T04:27:41.045Z,38.0330
2022-09-23T04:28:43.350Z,38.0390
2022-09-23T04:29:45.614Z,38.0860
2022-09-23T04:30:47.901Z,37.8440
2022-09-23T04:31:48.230Z,37.8060
2022-09-23T04:32:50.335Z,37.8330
2022-09-23T04:33:52.631Z,37.8860
2022-09-23T04:34:54.912Z,37.9080
2022-09-23T04:35:55.070Z,37.9620
2022-09-23T04:36:57.397Z,38.0070
2022-09-23T04:37:59.669Z,38.0640
2022-09-23T04:39:02.087Z,38.0270
2022-09-23T04:40:04.361Z,38.0210
2022-09-23T04:41:06.531Z,38.0450
2022-09-23T04:42:08.845Z,38.0770
2022-09-23T04:43:13.333Z,38.0720
2022-09-23T04:44:11.284Z,38.0770
2022-09-23T04:45:13.553Z,38.0720
2022-09-23T04:46:15.914Z,38.0620
2022-09-23T04:47:18.182Z,38.0830
2022-09-23T04:48:20.430Z,38.2100
2022-09-23T04:49:22.724Z,38.2080
2022-09-23T04:50:22.878Z,38.1640
2022-09-23T04:51:25.191Z,38.1740
2022-09-23T04:52:27.549Z,38.1760
2022-09-23T04:53:27.716Z,38.1250
2022-09-23T04:54:30.041Z,38.1430
2022-09-23T04:55:32.382Z,38.1580
2022-09-23T04:56:34.717Z,38.1970
2022-09-23T04:57:37.065Z,38.1950
2022-09-23T04:58:39.293Z,38.1730
2022-09-23T04:59:41.625Z,38.2390
2022-09-23T05:00:41.844Z,38.2650
2022-09-23T05:01:44.207Z,38.2380
2022-09-23T05:02:46.414Z,38.3010
2022-09-23T05:03:48.725Z,38.2850
2022-09-23T05:04:51.070Z,38.3550
2022-09-23T05:05:53.401Z,38.3880
2022-09-23T05:06:53.579Z,38.3950
2022-09-23T05:07:55.946Z,38.4230
2022-09-23T05:08:58.220Z,38.3770
2022-09-23T05:10:00.518Z,38.3830
2022-09-23T05:11:02.818Z,38.3520
2022-09-23T05:12:05.073Z,38.4070
2022-09-23T05:13:07.380Z,38.3660
2022-09-23T05:14:07.483Z,38.3810
2022-09-23T05:15:09.788Z,38.3220
2022-09-23T05:16:12.237Z,38.4230
2022-09-23T05:17:14.355Z,38.4800
2022-09-23T05:18:17.856Z,38.4280
2022-09-23T05:19:16.801Z,38.4650
2022-09-23T05:20:19.090Z,38.4050
2022-09-23T05:21:21.389Z,38.4230
2022-09-23T05:22:23.698Z,38.3660
2022-09-23T05:23:26.020Z,38.4680
2022-09-23T05:24:28.289Z,38.4530
2022-09-23T05:25:28.447Z,38.4380
2022-09-23T05:26:30.765Z,38.4650
2022-09-23T05:27:33.072Z,38.4290
2022-09-23T05:28:35.429Z,38.4500
2022-09-23T05:29:37.694Z,38.4920
2022-09-23T05:30:40.134Z,38.4880
2022-09-23T05:31:42.391Z,38.4400
2022-09-23T05:32:44.591Z,38.5160
2022-09-23T05:33:46.903Z,38.5160
2022-09-23T05:34:49.159Z,38.4670
2022-09-23T05:35:49.255Z,38.5100
2022-09-23T05:36:51.487Z,38.4700
2022-09-23T05:37:53.734Z,38.4320
2022-09-23T05:38:56.046Z,38.4530
2022-09-23T05:39:56.153Z,38.4120
2022-09-23T05:40:58.457Z,38.3750
2022-09-23T05:42:00.737Z,38.4280
2022-09-23T05:43:03.132Z,38.4230
2022-09-23T05:44:05.326Z,38.4810
2022-09-23T05:45:07.566Z,38.5080
2022-09-23T05:46:09.878Z,38.5200
2022-09-23T05:47:12.063Z,38.5370
2022-09-23T05:48:14.336Z,38.4770
2022-09-23T05:49:16.654Z,38.4890
2022-09-23T05:50:18.901Z,38.4560
2022-09-23T05:51:19.045Z,38.4870
2022-09-23T05:52:21.325Z,38.4620
2022-09-23T05:53:23.619Z,38.5540
2022-09-23T05:54:25.947Z,38.4890
2022-09-23T05:55:26.066Z,38.5140
2022-09-23T05:56:28.424Z,38.5620
2022-09-23T05:57:30.619Z,38.5950
2022-09-23T05:58:32.880Z,38.7250
2022-09-23T05:59:32.983Z,38.7610
2022-09-23T06:00:35.251Z,38.7670
2022-09-23T06:01:37.567Z,38.7210
2022-09-23T06:02:39.856Z,38.7680
2022-09-23T06:03:39.979Z,38.7330
2022-09-23T06:04:42.300Z,38.6770
2022-09-23T06:05:44.584Z,38.6830
2022-09-23T06:06:46.880Z,38.6940
2022-09-23T06:07:49.183Z,38.7160
2022-09-23T06:08:51.495Z,38.7680
2022-09-23T06:09:53.829Z,38.7870
2022-09-23T06:10:56.112Z,38.8000
2022-09-23T06:11:58.445Z,38.8130
2022-09-23T06:13:00.783Z,38.8370
2022-09-23T06:14:03.319Z,38.8330
2022-09-23T06:15:05.407Z,38.8060
2022-09-23T06:16:07.778Z,38.8480
2022-09-23T06:17:07.824Z,38.9140
2022-09-23T06:18:10.084Z,38.9370
2022-09-23T06:19:12.373Z,38.9890
2022-09-23T06:20:14.700Z,39.0120
2022-09-23T06:21:16.991Z,38.9970
2022-09-23T06:22:19.312Z,38.9460
2022-09-23T06:23:24.715Z,38.9690
2022-09-23T06:24:30.153Z,38.9570
2022-09-23T06:25:26.214Z,38.9530
2022-09-23T06:26:28.451Z,38.8870
2022-09-23T06:27:28.591Z,38.9300
2022-09-23T06:28:30.860Z,38.9920
2022-09-23T06:29:33.141Z,39.0450
2022-09-23T06:30:35.467Z,39.0330
2022-09-23T06:31:35.653Z,39.1200
2022-09-23T06:32:37.829Z,39.1920
2022-09-23T06:33:40.092Z,39.1920
2022-09-23T06:34:51.102Z,39.0770
2022-09-23T06:36:51.308Z,38.9080
2022-09-23T06:37:53.436Z,38.7750
2022-09-23T06:38:54.513Z,38.7180
2022-09-23T06:39:55.758Z,38.7420
2022-09-23T06:40:58.027Z,38.6950
2022-09-23T06:42:00.325Z,38.6230
2022-09-23T06:43:02.596Z,38.6410
2022-09-23T06:44:02.742Z,38.6100
2022-09-23T06:45:04.998Z,38.5980
2022-09-23T06:46:07.413Z,38.5470
2022-09-23T06:47:09.648Z,35.8090
2022-09-23T06:48:12.122Z,37.4490
2022-09-23T06:49:12.295Z,39.1440
2022-09-23T06:50:14.708Z,40.2060
2022-09-23T06:51:17.214Z,41.3830
2022-09-23T06:52:19.642Z,42.1830
2022-09-23T06:53:19.896Z,42.6270
2022-09-23T06:54:22.320Z,42.0690
2022-09-23T06:55:24.798Z,42.7220
2022-09-23T06:56:25.093Z,42.4290
2022-09-23T06:57:27.602Z,43.6750
2022-09-23T06:58:30.050Z,43.9350
2022-09-23T06:59:32.494Z,43.8850
2022-09-23T07:00:32.767Z,44.2110
2022-09-23T07:01:35.520Z,44.0720
2022-09-23T07:02:37.758Z,43.9980
2022-09-23T07:03:37.829Z,43.9980
2022-09-23T07:04:40.139Z,42.8230
2022-09-23T07:05:42.505Z,41.7450
2022-09-23T07:06:44.855Z,40.7860
2022-09-23T07:07:47.209Z,40.1440
2022-09-23T07:08:49.486Z,39.7390
2022-09-23T07:09:49.640Z,39.4580
2022-09-23T07:10:51.922Z,39.2780
2022-09-23T07:11:54.239Z,39.1940
2022-09-23T07:12:56.521Z,38.9730
2022-09-23T07:13:58.774Z,38.9900
2022-09-23T07:15:01.050Z,38.8630
2022-09-23T07:16:01.275Z,38.8000
2022-09-23T07:17:03.460Z,38.7390
2022-09-23T07:18:05.766Z,38.6220
2022-09-23T07:19:08.045Z,38.5130
2022-09-23T07:20:10.262Z,38.3970
2022-09-23T07:21:12.531Z,38.2980
2022-09-23T07:22:14.791Z,38.2000
2022-09-23T07:23:17.091Z,38.1810
2022-09-23T07:24:17.187Z,38.0990
2022-09-23T07:25:19.448Z,38.0770
2022-09-23T07:26:21.649Z,38.0810
2022-09-23T07:27:23.881Z,38.0190
2022-09-23T07:28:26.186Z,38.0240
2022-09-23T07:29:30.078Z,37.9480
2022-09-23T07:30:30.701Z,37.9600
2022-09-23T07:31:39.094Z,37.9470
2022-09-23T07:32:44.876Z,37.9360
2022-09-23T07:33:37.490Z,37.9340
2022-09-23T07:34:37.545Z,37.9180
2022-09-23T07:35:39.774Z,37.9040
2022-09-23T07:36:41.963Z,37.8750
2022-09-23T07:37:44.195Z,37.8770
2022-09-23T07:38:46.450Z,37.8380
2022-09-23T07:39:48.629Z,37.8320
2022-09-23T07:40:50.884Z,37.7930
2022-09-23T07:41:53.135Z,37.8040
2022-09-23T07:42:55.447Z,37.7440
2022-09-23T07:43:55.617Z,37.6720
2022-09-23T07:44:57.896Z,37.6950
2022-09-23T07:46:00.308Z,37.6520
2022-09-23T07:47:02.522Z,37.6390
2022-09-23T07:48:04.836Z,37.5890
2022-09-23T07:49:05.158Z,37.5710
2022-09-23T07:50:07.330Z,37.5990
2022-09-23T07:51:09.653Z,37.6230
2022-09-23T07:52:11.964Z,37.5900
2022-09-23T07:53:14.284Z,37.5930
2022-09-23T07:54:14.488Z,37.5680
2022-09-23T07:55:20.272Z,37.5100
2022-09-23T07:56:19.115Z,37.5580
2022-09-23T07:57:21.446Z,37.5500
2022-09-23T07:58:23.788Z,37.5360
2022-09-23T07:59:26.098Z,37.5230
2022-09-23T08:00:26.219Z,37.4820
2022-09-23T08:01:28.553Z,37.4870
2022-09-23T08:02:30.887Z,37.5050
2022-09-23T08:03:33.177Z,37.5040
2022-09-23T08:04:35.556Z,37.4790
2022-09-23T08:05:37.936Z,37.5040
2022-09-23T08:06:37.997Z,37.5100
2022-09-23T08:07:40.295Z,37.5850
2022-09-23T08:08:42.549Z,37.5750
2022-09-23T08:09:44.830Z,37.5420
2022-09-23T08:10:47.083Z,37.5070
2022-09-23T08:11:49.373Z,37.4970
2022-09-23T08:12:51.685Z,37.5240
2022-09-23T08:13:51.828Z,37.5130
2022-09-23T08:14:54.143Z,37.5080
2022-09-23T08:15:56.495Z,37.4720
2022-09-23T08:16:56.614Z,37.5150
2022-09-23T08:17:58.851Z,37.5200
2022-09-23T08:19:01.302Z,37.6130
2022-09-23T08:20:03.460Z,37.6590
2022-09-23T08:22:29.623Z,37.7590
2022-09-23T08:23:31.814Z,37.7160
2022-09-23T08:24:34.080Z,37.6950
2022-09-23T08:25:36.375Z,37.7540
2022-09-23T08:26:38.572Z,37.7480
2022-09-23T08:27:38.654Z,37.8100
2022-09-23T08:28:40.873Z,37.8070
2022-09-23T08:29:43.031Z,37.8250
2022-09-23T08:30:45.313Z,37.8860
2022-09-23T08:31:47.427Z,37.8810
2022-09-23T08:32:49.622Z,37.9460
2022-09-23T08:33:51.886Z,37.9250
2022-09-23T08:34:54.131Z,37.8550
2022-09-23T08:35:56.400Z,37.8310
2022-09-23T08:36:58.638Z,37.8380
2022-09-23T08:38:00.926Z,37.8450
2022-09-23T08:39:03.169Z,37.9070
2022-09-23T08:40:03.491Z,37.9010
2022-09-23T08:41:05.524Z,37.9610
2022-09-23T08:42:07.713Z,37.8860
2022-09-23T08:43:09.966Z,37.8520
2022-09-23T08:44:12.238Z,37.8460
2022-09-23T08:45:14.474Z,37.8650
2022-09-23T08:46:16.845Z,37.8830
2022-09-23T08:47:18.994Z,37.8830
2022-09-23T08:48:21.244Z,37.8670
2022-09-23T08:49:23.493Z,37.8600
2022-09-23T08:50:23.616Z,37.8490
2022-09-23T08:51:25.885Z,37.8570
2022-09-23T08:52:28.151Z,37.8660
2022-09-23T08:53:30.459Z,37.8570
2022-09-23T08:54:32.763Z,37.9090
2022-09-23T08:55:35.023Z,37.9010
2022-09-23T08:56:37.333Z,37.8730
2022-09-23T08:57:37.432Z,37.8250
2022-09-23T08:58:39.708Z,37.8430
2022-09-23T08:59:41.963Z,37.8770
2022-09-23T09:00:44.210Z,37.8790
2022-09-23T09:01:46.566Z,37.8770
2022-09-23T09:02:48.756Z,37.9040
2022-09-23T09:03:50.950Z,37.9520
2022-09-23T09:04:53.215Z,37.9640
2022-09-23T09:05:55.458Z,37.9690
2022-09-23T09:07:03.403Z,37.9550
2022-09-23T09:07:57.873Z,37.9730
2022-09-23T09:09:00.265Z,37.9460
2022-09-23T09:10:02.457Z,37.9130
2022-09-23T09:11:04.696Z,37.9030
2022-09-23T09:12:06.934Z,37.8960
2022-09-23T09:13:09.175Z,37.9390
2022-09-23T09:14:11.401Z,37.8790
2022-09-23T09:15:13.643Z,37.9090
2022-09-23T09:16:13.761Z,37.9080
2022-09-23T09:17:16.007Z,37.9430
2022-09-23T09:18:18.229Z,37.9310
2022-09-23T09:19:20.455Z,37.9310
2022-09-23T09:20:22.740Z,37.9310
2022-09-23T09:21:25.028Z,37.9080
2022-09-23T09:22:28.338Z,37.9080
2022-09-23T09:23:29.546Z,37.9040
2022-09-23T09:24:31.865Z,37.9100
2022-09-23T09:25:34.148Z,37.9120
2022-09-23T09:26:34.286Z,38.0220
2022-09-23T09:27:36.605Z,38.0190
2022-09-23T09:28:38.869Z,37.9890
2022-09-23T09:29:41.672Z,38.1640
2022-09-23T09:30:44.077Z,38.4290
2022-09-23T09:31:43.498Z,38.7560
2022-09-23T09:32:45.820Z,38.7680
2022-09-23T09:33:48.001Z,38.9610
2022-09-23T09:34:50.289Z,39.1380
2022-09-23T09:35:52.550Z,39.1750
2022-09-23T09:36:54.785Z,39.2520
2022-09-23T09:37:57.095Z,39.3650
2022-09-23T09:38:59.492Z,39.4080
2022-09-23T09:40:01.896Z,39.4720
2022-09-23T09:41:01.783Z,39.5100
2022-09-23T09:42:04.042Z,39.5970
2022-09-23T09:43:06.366Z,39.6030
2022-09-23T09:44:08.623Z,39.5780
2022-09-23T09:45:10.923Z,39.6910
2022-09-23T09:46:13.265Z,39.9380
2022-09-23T09:47:13.383Z,39.9270
2022-09-23T09:48:15.702Z,39.9700
2022-09-23T09:49:17.979Z,39.9810
2022-09-23T09:50:20.316Z,40.0260
2022-09-23T09:51:22.563Z,39.9690
2022-09-23T09:52:24.862Z,40.0220
2022-09-23T09:53:24.981Z,40.1140
2022-09-23T09:54:27.232Z,40.0640
2022-09-23T09:55:29.567Z,40.0880
2022-09-23T09:56:31.838Z,39.9150
2022-09-23T09:57:36.096Z,39.5080
2022-09-23T09:58:36.398Z,39.4720
2022-09-23T09:59:38.657Z,39.3950
2022-09-23T10:00:40.877Z,39.3050
2022-09-23T10:01:41.021Z,39.2980
2022-09-23T10:02:43.233Z,39.3180
2022-09-23T10:03:45.473Z,39.3260
2022-09-23T10:04:47.720Z,39.3070
2022-09-23T10:05:49.955Z,39.3070
2022-09-23T10:06:52.218Z,39.3540
2022-09-23T10:07:54.479Z,39.3590
2022-09-23T10:08:56.768Z,39.3070
2022-09-23T10:10:06.090Z,39.2810
2022-09-23T10:10:59.102Z,39.3720
2022-09-23T10:12:01.329Z,39.3950
2022-09-23T10:13:03.598Z,39.4170
2022-09-23T10:14:05.857Z,39.4440
2022-09-23T10:15:08.110Z,39.4280
2022-09-23T10:16:10.413Z,39.3800
2022-09-23T10:17:12.709Z,39.3540
2022-09-23T10:18:14.978Z,39.3670
2022-09-23T10:19:15.109Z,39.3290
2022-09-23T10:20:17.353Z,39.2650
2022-09-23T10:21:21.285Z,39.2650
2022-09-23T10:22:21.894Z,39.2300
2022-09-23T10:23:24.200Z,39.1990
2022-09-23T10:24:26.513Z,39.2050
2022-09-23T10:25:28.785Z,39.1940
2022-09-23T10:26:31.112Z,39.2150
2022-09-23T10:27:31.266Z,39.1920
2022-09-23T10:28:33.582Z,39.1690
2022-09-23T10:29:35.927Z,39.1980
2022-09-23T10:30:38.294Z,39.1440
2022-09-23T10:31:40.513Z,39.0110
2022-09-23T10:32:42.816Z,38.9480
2022-09-23T10:33:42.974Z,38.8500
2022-09-23T10:34:45.277Z,38.8070
2022-09-23T10:35:47.570Z,38.9130
2022-09-23T10:36:49.829Z,38.8720
2022-09-23T10:37:52.088Z,38.8260
2022-09-23T10:38:54.344Z,38.7990
2022-09-23T10:39:56.633Z,38.7550
2022-09-23T10:40:56.860Z,38.8600
2022-09-23T10:41:59.008Z,38.9040
2022-09-23T10:43:01.287Z,38.8560
2022-09-23T10:44:03.682Z,38.8670
2022-09-23T10:45:05.876Z,38.8500
2022-09-23T10:46:06.967Z,38.8210
2022-09-23T10:47:09.155Z,39.0090
2022-09-23T10:48:10.385Z,39.1090
2022-09-23T10:49:12.629Z,38.9890
2022-09-23T10:50:14.850Z,38.9270
2022-09-23T10:51:17.077Z,38.8730
2022-09-23T10:52:19.361Z,38.8500
2022-09-23T10:53:21.589Z,38.8590
2022-09-23T10:54:23.881Z,38.8190
2022-09-23T10:55:26.420Z,38.7780
2022-09-23T10:56:26.347Z,38.7310
2022-09-23T10:57:28.689Z,38.6650
2022-09-23T10:58:30.953Z,38.6730
2022-09-23T10:59:33.264Z,38.6360
2022-09-23T11:00:35.576Z,38.6270
2022-09-23T11:01:37.900Z,38.5900
2022-09-23T11:02:40.121Z,38.6550
2022-09-23T11:03:40.303Z,38.9040
2022-09-23T11:04:42.813Z,38.9130
2022-09-23T11:05:45.055Z,39.2100
2022-09-23T11:06:47.391Z,39.3670
2022-09-23T11:07:49.711Z,39.4320
2022-09-23T11:08:49.859Z,39.3090
2022-09-23T11:09:52.150Z,39.3980
2022-09-23T11:10:54.484Z,39.4880
2022-09-23T11:11:54.632Z,39.3480
2022-09-23T11:12:57.006Z,39.4990
2022-09-23T11:13:59.316Z,39.3340
2022-09-23T11:14:59.504Z,39.4220
2022-09-23T11:16:01.881Z,39.3110
2022-09-23T11:17:04.279Z,39.2360
2022-09-23T11:18:06.534Z,39.0410
2022-09-23T11:19:08.836Z,38.8950
2022-09-23T11:20:08.987Z,38.9270
2022-09-23T11:21:11.278Z,38.8910
2022-09-23T11:22:11.410Z,38.8690
2022-09-23T11:23:13.767Z,38.8750
2022-09-23T11:24:16.060Z,38.8450
2022-09-23T11:25:16.231Z,38.9280
2022-09-23T11:26:18.584Z,38.8720
2022-09-23T11:27:20.886Z,38.8410
2022-09-23T11:28:23.232Z,38.8770
2022-09-23T11:29:25.519Z,38.7780
2022-09-23T11:30:27.854Z,38.6620
2022-09-23T11:32:13.105Z,38.8020
2022-09-23T11:33:15.238Z,38.6810
2022-09-23T11:34:17.463Z,38.7900
2022-09-23T11:35:19.619Z,38.8550
2022-09-23T11:36:21.782Z,38.7640
2022-09-23T11:37:24.002Z,38.6350
2022-09-23T11:38:26.275Z,38.6560
2022-09-23T11:39:28.303Z,38.7400
2022-09-23T11:40:30.494Z,38.5990
2022-09-23T11:41:32.603Z,38.4750
2022-09-23T11:42:34.851Z,38.6130
2022-09-23T11:43:37.030Z,38.5410
2022-09-23T11:44:39.243Z,38.7290
2022-09-23T11:45:41.487Z,38.6810
2022-09-23T11:46:43.667Z,38.6530
2022-09-23T11:47:45.920Z,38.6180
2022-09-23T11:48:48.100Z,38.5990
2022-09-23T11:49:50.316Z,38.5500
2022-09-23T11:50:52.508Z,38.5130
2022-09-23T11:51:54.708Z,38.4800
2022-09-23T11:52:56.946Z,38.5220
2022-09-23T11:53:56.930Z,38.5090
2022-09-23T11:54:59.193Z,38.5200
2022-09-23T11:56:01.314Z,38.5680
2022-09-23T11:57:03.526Z,38.5170
2022-09-23T11:58:08.796Z,38.4790
2022-09-23T11:59:08.265Z,38.5770
2022-09-23T12:00:10.132Z,38.5250
2022-09-23T12:01:12.342Z,38.6590
2022-09-23T12:02:20.107Z,38.6010
2022-09-23T12:03:14.730Z,38.6800
2022-09-23T12:04:20.749Z,38.5600
2022-09-23T12:05:19.240Z,38.5310
2022-09-23T12:06:21.323Z,38.5450
2022-09-23T12:07:23.599Z,38.5420
2022-09-23T12:08:25.917Z,38.5500
2022-09-23T12:09:53.943Z,38.6900
2022-09-23T12:10:28.233Z,38.7230
2022-09-23T12:11:30.485Z,38.6870
2022-09-23T12:12:32.739Z,38.7680
2022-09-23T12:13:34.931Z,38.7820
2022-09-23T12:14:37.078Z,38.8030
2022-09-23T12:15:39.207Z,38.8320
2022-09-23T12:16:41.450Z,38.8560
2022-09-23T12:17:43.542Z,38.8670
2022-09-23T12:18:45.824Z,38.8920
2022-09-23T12:19:48.044Z,38.8940
2022-09-23T12:20:50.242Z,38.9190
2022-09-23T12:21:52.400Z,38.9420
2022-09-23T12:22:54.543Z,38.9590
2022-09-23T12:23:56.781Z,38.9700
2022-09-23T12:24:58.970Z,38.9890
2022-09-23T12:26:01.219Z,38.9700
2022-09-23T12:27:01.269Z,39.0030
2022-09-23T12:28:03.529Z,38.9970
2022-09-23T12:29:05.862Z,39.0100
2022-09-23T12:30:08.066Z,39.0160
2022-09-23T12:31:10.362Z,38.9900
2022-09-23T12:32:12.525Z,39.0000
2022-09-23T12:33:14.784Z,39.0290